01:06
Airports
History
Links
Donate
Help keep this website running!
PayPal
Bitcoin
This page is community maintained. The information is intended for PC simulator navigation or reference.
Always use approved charts for navigation.
SWFN
Flores
Flores (SWFN)
Manaus, Amazonas, Brazil (69058)
(U)
Lat/Lng:3° 4' 22" S / 60° 1' 16" W
-3.072778 / -60.021111
Elevation:203'ft / 62mMSL
ID / ICAO:SWFN
Runways:1
Longest:11-29
Asphalt 805m / 2,640ft
Nearby Weather01:00 GMT 2018-02-18
Nearby weather at SBEG, Eduardo Gomes located 3.1 nautical miles from SWFN
Altimeter: 29.85
Visibility: 6.2 statute miles
Wind: 3 knots (from 350°)
Temp: 24°c / 75°f
Humidity: 100.0%

METAR: SBEG 180100Z 35003KT 9999 SCT009 24/24 Q1011

(Powered by phpweather)
Runway 11 / 29
Dimensions:804.7 x 29.9m 2640' x 98'ft
Surface:Asphalt
Runway 11 [A]Runway 29 [B]
Heading:095°TH 275°TH
Lat:
Lng:
3° 4' 20.84"S
60° 1' 28.91"W
3° 4' 23.16"S
60° 1' 3.09"W
User Notes and Comments
3° 4' 22" S / 60° 1' 16" W
Distance To
Airport ID:
Nearby Airports
(C) Eduardo Gomes 3.1 NM
SBEG ( WX ) NW 320°
(C) PONTA PELADA 5.6 NM
SBMN ( WX ) SSE 154°
(C) Mountain Point 27.2 NM
SYMP E 79°
4 Fazenda Planura 44.1 NM
SIFN SE 144°
(C) Lumid Pau 61.7 NM
SYLP NE 41°
(C) Aishalton 63.6 NM
SYAH NE 49°
(C) Awaruwaunau 63.8 NM
SYAW ENE 62°
VFR Chart
Flight Planning at SkyVector.com